createdAt,value
2022-09-21T00:00:25.942Z,67.42
2022-09-21T00:02:55.280Z,67.03
2022-09-21T00:05:21.815Z,66.47
2022-09-21T00:07:48.150Z,66.70
2022-09-21T00:10:14.863Z,67.55
2022-09-21T00:12:41.245Z,67.99
2022-09-21T00:15:09.484Z,67.29
2022-09-21T00:17:36.997Z,66.85
2022-09-21T00:20:05.928Z,67.14
2022-09-21T00:22:33.385Z,66.91
2022-09-21T00:25:01.346Z,67.51
2022-09-21T00:27:29.990Z,67.53
2022-09-21T00:29:57.598Z,68.18
2022-09-21T00:32:27.655Z,68.71
2022-09-21T00:34:54.006Z,68.58
2022-09-21T00:37:20.362Z,69.76
2022-09-21T00:39:46.816Z,71.26
2022-09-21T00:42:25.921Z,70.64
2022-09-21T00:44:52.682Z,70.09
2022-09-21T00:47:24.935Z,70.20
2022-09-21T00:49:55.583Z,69.92
2022-09-21T00:52:30.232Z,68.64
2022-09-21T00:55:00.531Z,68.94
2022-09-21T00:57:30.971Z,68.18
2022-09-21T01:00:01.273Z,68.37
2022-09-21T01:02:28.397Z,68.82
2022-09-21T01:04:55.594Z,68.64
2022-09-21T01:07:27.496Z,68.74
2022-09-21T01:10:02.343Z,68.37
2022-09-21T01:12:53.668Z,67.88
2022-09-21T01:15:40.508Z,68.88
2022-09-21T01:18:18.096Z,69.16
2022-09-21T01:21:15.698Z,68.83
2022-09-21T01:24:27.225Z,69.62
2022-09-21T01:27:11.648Z,69.12
2022-09-21T01:29:55.985Z,68.34
2022-09-21T01:32:28.034Z,67.96
2022-09-21T01:35:02.842Z,69.19
2022-09-21T01:37:43.730Z,69.29
2022-09-21T01:40:16.699Z,69.90
2022-09-21T01:42:47.054Z,70.67
2022-09-21T01:45:17.619Z,69.97
2022-09-21T01:47:48.264Z,69.99
2022-09-21T01:50:17.403Z,69.16
2022-09-21T01:52:52.192Z,68.97
2022-09-21T01:55:29.642Z,68.89
2022-09-21T01:58:11.858Z,69.90
2022-09-21T02:00:40.301Z,68.53
2022-09-21T02:03:15.217Z,68.67
2022-09-21T02:05:42.503Z,69.18
2022-09-21T02:08:10.420Z,69.01
2022-09-21T02:10:42.757Z,68.74
2022-09-21T02:13:09.539Z,68.24
2022-09-21T02:16:16.597Z,68.31
2022-09-21T02:19:07.545Z,68.44
2022-09-21T02:21:41.621Z,68.64
2022-09-21T02:24:21.871Z,67.54
2022-09-21T02:26:56.600Z,67.89
2022-09-21T02:29:33.365Z,67.38
2022-09-21T02:32:10.910Z,67.34
2022-09-21T02:34:46.191Z,68.80
2022-09-21T02:37:25.243Z,68.18
2022-09-21T02:39:58.070Z,67.93
2022-09-21T02:42:29.611Z,66.91
2022-09-21T02:45:05.683Z,66.97
2022-09-21T02:47:44.700Z,67.57
2022-09-21T02:50:17.377Z,67.85
2022-09-21T02:52:44.471Z,68.32
2022-09-21T02:55:13.151Z,68.44
2022-09-21T02:57:40.758Z,68.42
2022-09-21T03:00:08.235Z,68.26
2022-09-21T03:02:40.083Z,67.83
2022-09-21T03:05:08.014Z,67.95
2022-09-21T03:07:34.510Z,67.92
2022-09-21T03:10:01.244Z,68.35
2022-09-21T03:12:27.878Z,67.62
2022-09-21T03:14:54.194Z,67.51
2022-09-21T03:17:20.931Z,67.43
2022-09-21T03:19:47.273Z,67.82
2022-09-21T03:22:13.590Z,67.50
2022-09-21T03:24:45.882Z,67.04
2022-09-21T03:27:18.205Z,67.12
2022-09-21T03:29:45.190Z,67.02
2022-09-21T03:32:11.706Z,68.13
2022-09-21T03:34:38.108Z,68.07
2022-09-21T03:37:06.760Z,67.74
2022-09-21T03:39:33.094Z,67.45
2022-09-21T03:41:59.425Z,67.59
2022-09-21T03:44:26.675Z,67.93
2022-09-21T03:46:53.810Z,68.28
2022-09-21T03:49:20.295Z,66.94
2022-09-21T03:51:46.802Z,67.54
2022-09-21T03:54:13.161Z,68.11
2022-09-21T03:56:39.498Z,69.51
2022-09-21T03:59:09.482Z,69.46
2022-09-21T04:01:38.480Z,68.80
2022-09-21T04:04:04.973Z,68.94
2022-09-21T04:06:31.293Z,69.31
2022-09-21T04:08:57.629Z,68.29
2022-09-21T04:11:24.549Z,68.25
2022-09-21T04:13:53.154Z,67.87
2022-09-21T04:16:19.519Z,69.00
2022-09-21T04:18:47.758Z,69.53
2022-09-21T04:21:14.075Z,70.96
2022-09-21T04:23:41.572Z,70.75
2022-09-21T04:26:27.667Z,70.12
2022-09-21T04:28:55.192Z,69.33
2022-09-21T04:31:23.208Z,69.94
2022-09-21T04:33:51.019Z,70.84
2022-09-21T04:36:18.785Z,71.37
2022-09-21T04:38:45.708Z,70.92
2022-09-21T04:41:12.833Z,70.00
2022-09-21T04:43:42.334Z,70.01
2022-09-21T04:46:11.465Z,69.61
2022-09-21T04:48:39.102Z,69.33
2022-09-21T04:51:07.700Z,69.58
2022-09-21T04:53:35.691Z,69.22
2022-09-21T04:56:02.671Z,69.37
2022-09-21T04:58:29.046Z,68.89
2022-09-21T05:00:56.504Z,69.84
2022-09-21T05:03:24.534Z,69.64
2022-09-21T05:05:53.085Z,69.53
2022-09-21T05:08:40.891Z,69.94
2022-09-21T05:11:09.786Z,69.01
2022-09-21T05:13:36.432Z,70.12
2022-09-21T05:16:02.924Z,70.03
2022-09-21T05:18:29.394Z,70.75
2022-09-21T05:21:00.643Z,70.97
2022-09-21T05:23:29.471Z,70.31
2022-09-21T05:25:56.941Z,70.64
2022-09-21T05:28:24.336Z,70.22
2022-09-21T05:31:17.824Z,70.06
2022-09-21T05:33:51.591Z,70.37
2022-09-21T05:36:30.006Z,71.21
2022-09-21T05:38:56.666Z,71.74
2022-09-21T05:41:23.617Z,71.28
2022-09-21T05:43:50.430Z,71.97
2022-09-21T05:46:26.583Z,71.49
2022-09-21T05:49:17.418Z,71.15
2022-09-21T05:52:13.585Z,71.45
2022-09-21T05:55:27.590Z,71.69
2022-09-21T05:58:15.465Z,72.01
2022-09-21T06:01:02.028Z,71.68
2022-09-21T06:03:33.643Z,71.62
2022-09-21T06:05:59.977Z,72.12
2022-09-21T06:08:26.725Z,72.29
2022-09-21T06:10:54.710Z,71.84
2022-09-21T06:13:21.415Z,71.93
2022-09-21T06:15:47.762Z,72.18
2022-09-21T06:18:17.764Z,72.48
2022-09-21T06:20:44.415Z,72.37
2022-09-21T06:23:13.080Z,73.07
2022-09-21T06:25:39.844Z,72.86
2022-09-21T06:28:12.586Z,73.28
2022-09-21T06:30:42.025Z,73.63
2022-09-21T06:33:08.870Z,73.60
2022-09-21T06:35:36.833Z,73.46
2022-09-21T06:38:06.273Z,73.39
2022-09-21T06:40:35.031Z,73.65
2022-09-21T06:43:05.875Z,74.52
2022-09-21T06:45:32.497Z,74.36
2022-09-21T06:47:59.091Z,73.99
2022-09-21T06:50:25.679Z,74.06
2022-09-21T06:52:52.018Z,74.71
2022-09-21T06:55:18.357Z,75.05
2022-09-21T06:57:44.866Z,75.50
2022-09-21T07:00:12.899Z,74.85
2022-09-21T07:02:43.441Z,74.74
2022-09-21T07:05:09.798Z,75.07
2022-09-21T07:07:36.403Z,75.03
2022-09-21T07:10:05.859Z,75.38
2022-09-21T07:12:34.574Z,75.77
2022-09-21T07:15:02.248Z,77.02
2022-09-21T07:17:33.152Z,76.55
2022-09-21T07:20:00.196Z,75.62
2022-09-21T07:22:28.822Z,75.87
2022-09-21T07:24:55.251Z,76.37
2022-09-21T07:27:21.819Z,76.45
2022-09-21T07:29:48.114Z,76.46
2022-09-21T07:32:14.548Z,76.29
2022-09-21T07:34:40.889Z,76.45
2022-09-21T07:37:07.180Z,76.56
2022-09-21T07:39:33.504Z,76.48
2022-09-21T07:41:59.819Z,76.47
2022-09-21T07:44:26.552Z,76.95
2022-09-21T07:46:52.978Z,76.61
2022-09-21T07:49:19.409Z,76.91
2022-09-21T07:51:45.949Z,76.77
2022-09-21T07:54:12.694Z,76.63
2022-09-21T07:56:39.537Z,76.90
2022-09-21T07:59:05.914Z,77.55
2022-09-21T08:01:34.781Z,77.55
2022-09-21T08:04:01.809Z,77.51
2022-09-21T08:06:30.877Z,76.84
2022-09-21T08:08:58.288Z,77.25
2022-09-21T08:11:26.225Z,77.46
2022-09-21T08:13:54.068Z,76.49
2022-09-21T08:16:20.905Z,75.41
2022-09-21T08:18:47.355Z,75.38
2022-09-21T08:21:13.854Z,75.88
2022-09-21T08:23:40.453Z,75.46
2022-09-21T08:26:07.617Z,74.11
2022-09-21T08:28:36.139Z,73.38
2022-09-21T08:31:08.552Z,73.47
2022-09-21T08:33:35.501Z,73.25
2022-09-21T08:36:03.164Z,71.94
2022-09-21T08:38:34.717Z,72.93
2022-09-21T08:41:03.003Z,74.29
2022-09-21T08:43:36.669Z,74.83
2022-09-21T08:46:28.201Z,73.21
2022-09-21T08:49:07.023Z,72.18
2022-09-21T08:51:36.888Z,71.60
2022-09-21T08:54:20.288Z,72.00
2022-09-21T08:57:04.420Z,71.77
2022-09-21T08:59:31.623Z,72.05
2022-09-21T09:02:06.104Z,71.79
2022-09-21T09:04:55.519Z,72.05
2022-09-21T09:07:59.486Z,71.68
2022-09-21T09:10:39.107Z,71.00
2022-09-21T09:13:20.854Z,69.22
2022-09-21T09:15:59.511Z,68.95
2022-09-21T09:18:34.181Z,67.20
2022-09-21T09:21:29.616Z,67.19
2022-09-21T09:24:04.022Z,67.08
2022-09-21T09:26:39.793Z,66.99
2022-09-21T09:29:18.953Z,66.21
2022-09-21T09:31:46.533Z,66.00
2022-09-21T09:34:18.233Z,66.21
2022-09-21T09:36:59.143Z,65.43
2022-09-21T09:39:29.482Z,64.67
2022-09-21T09:42:08.349Z,64.03
2022-09-21T09:45:12.499Z,63.96
2022-09-21T09:47:58.001Z,63.66
2022-09-21T09:50:30.130Z,63.68
2022-09-21T09:53:05.026Z,62.79
2022-09-21T09:55:43.622Z,62.08
2022-09-21T09:58:33.184Z,61.43
2022-09-21T10:00:59.582Z,60.02
2022-09-21T10:03:27.731Z,59.13
2022-09-21T10:05:54.699Z,58.82
2022-09-21T10:08:36.264Z,58.63
2022-09-21T10:11:03.958Z,57.02
2022-09-21T10:13:33.297Z,58.52
2022-09-21T10:15:59.671Z,57.48
2022-09-21T10:18:38.902Z,55.27
2022-09-21T10:21:08.821Z,55.25
2022-09-21T10:23:37.162Z,55.96
2022-09-21T10:26:12.479Z,56.27
2022-09-21T10:28:55.763Z,54.51
2022-09-21T10:31:24.120Z,54.71
2022-09-21T10:34:03.724Z,54.26
2022-09-21T10:36:35.560Z,54.41
2022-09-21T10:39:22.349Z,53.55
2022-09-21T10:42:12.842Z,53.16
2022-09-21T10:44:42.144Z,53.83
2022-09-21T10:47:28.268Z,52.72
2022-09-21T10:49:57.738Z,53.53
2022-09-21T10:52:31.931Z,52.41
2022-09-21T10:54:58.626Z,51.19
2022-09-21T10:57:28.171Z,51.60
2022-09-21T10:59:54.879Z,51.45
2022-09-21T11:02:31.165Z,50.74
2022-09-21T11:05:00.518Z,52.02
2022-09-21T11:07:49.609Z,48.84
2022-09-21T11:10:21.650Z,49.91
2022-09-21T11:13:06.811Z,49.98
2022-09-21T11:15:56.723Z,49.43
2022-09-21T11:18:44.833Z,49.83
2022-09-21T11:21:31.990Z,46.53
2022-09-21T11:24:12.701Z,47.43
2022-09-21T11:26:56.034Z,47.33
2022-09-21T11:29:30.919Z,48.28
2022-09-21T11:32:22.151Z,48.68
2022-09-21T11:35:20.654Z,46.40
2022-09-21T11:38:11.783Z,45.35
2022-09-21T11:40:42.680Z,46.67
2022-09-21T11:43:26.901Z,47.98
2022-09-21T11:46:30.259Z,47.31
2022-09-21T11:49:12.485Z,47.10
2022-09-21T11:51:55.933Z,46.07
2022-09-21T11:54:46.868Z,44.24
2022-09-21T11:57:28.669Z,43.07
2022-09-21T12:00:16.311Z,44.88
2022-09-21T12:03:09.218Z,43.17
2022-09-21T12:06:03.595Z,44.71
2022-09-21T12:08:42.248Z,40.04
2022-09-21T12:11:31.856Z,42.52
2022-09-21T12:14:11.480Z,42.43
2022-09-21T12:16:56.883Z,40.97
2022-09-21T12:19:33.768Z,40.73
2022-09-21T12:22:14.220Z,41.52
2022-09-21T12:24:50.792Z,39.66
2022-09-21T12:28:02.950Z,40.73
2022-09-21T12:30:32.349Z,42.63
2022-09-21T12:33:01.560Z,43.22
2022-09-21T12:35:39.392Z,41.81
2022-09-21T12:38:29.019Z,38.05
2022-09-21T12:41:06.825Z,38.69
2022-09-21T12:43:53.449Z,40.00
2022-09-21T12:46:22.190Z,39.27
2022-09-21T12:48:49.091Z,38.86
2022-09-21T12:51:32.687Z,39.54
2022-09-21T12:54:06.316Z,40.13
2022-09-21T12:56:49.842Z,40.01
2022-09-21T12:59:43.858Z,38.43
2022-09-21T13:02:19.250Z,39.10
2022-09-21T13:05:07.163Z,37.74
2022-09-21T13:07:55.266Z,38.79
2022-09-21T13:10:28.046Z,39.07
2022-09-21T13:12:59.960Z,37.19
2022-09-21T13:15:30.245Z,36.49
2022-09-21T13:18:01.662Z,37.85
2022-09-21T13:20:34.559Z,37.79
2022-09-21T13:23:02.339Z,39.27
2022-09-21T13:25:32.494Z,38.27
2022-09-21T13:28:14.919Z,38.74
2022-09-21T13:31:37.051Z,38.42
2022-09-21T13:34:20.997Z,38.94
2022-09-21T13:37:16.763Z,38.42
2022-09-21T13:39:44.369Z,37.28
2022-09-21T13:42:29.380Z,37.84
2022-09-21T13:45:00.547Z,38.17
2022-09-21T13:47:33.151Z,37.78
2022-09-21T13:50:12.559Z,36.52
2022-09-21T13:52:45.741Z,33.55
2022-09-21T13:55:27.783Z,36.35
2022-09-21T13:57:55.954Z,38.64
2022-09-21T14:00:22.330Z,37.63
2022-09-21T14:02:48.982Z,37.19
2022-09-21T14:05:40.609Z,37.21
2022-09-21T14:08:15.939Z,35.15
2022-09-21T14:10:56.704Z,36.53
2022-09-21T14:13:31.969Z,35.23
2022-09-21T14:16:29.070Z,36.32
2022-09-21T14:18:56.251Z,34.80
2022-09-21T14:21:22.894Z,33.72
2022-09-21T14:24:08.048Z,34.14
2022-09-21T14:26:46.110Z,36.84
2022-09-21T14:29:21.684Z,37.05
2022-09-21T14:31:52.132Z,34.61
2022-09-21T14:34:25.189Z,35.76
2022-09-21T14:36:55.930Z,35.00
2022-09-21T14:39:25.313Z,36.31
2022-09-21T14:41:54.755Z,35.85
2022-09-21T14:44:25.588Z,32.25
2022-09-21T14:47:22.535Z,34.50
2022-09-21T14:50:14.991Z,33.05
2022-09-21T14:52:56.018Z,31.65
2022-09-21T14:55:40.604Z,34.34
2022-09-21T14:58:33.948Z,36.17
2022-09-21T15:01:35.722Z,34.50
2022-09-21T15:04:31.258Z,33.70
2022-09-21T15:07:34.940Z,35.07
2022-09-21T15:10:32.074Z,34.65
2022-09-21T15:13:08.258Z,34.65
2022-09-21T15:15:42.399Z,33.18
2022-09-21T15:18:21.311Z,33.44
2022-09-21T15:21:01.724Z,32.09
2022-09-21T15:23:40.856Z,32.04
2022-09-21T15:26:19.135Z,32.78
2022-09-21T15:29:08.769Z,34.02
2022-09-21T15:31:38.676Z,31.60
2022-09-21T15:34:06.625Z,32.02
2022-09-21T15:36:37.609Z,31.98
2022-09-21T15:39:04.599Z,30.50
2022-09-21T15:41:45.413Z,32.85
2022-09-21T15:44:16.510Z,33.80
2022-09-21T15:46:47.276Z,34.32
2022-09-21T15:49:21.236Z,33.86
2022-09-21T15:51:56.471Z,33.76
2022-09-21T15:54:40.021Z,32.37
2022-09-21T15:57:25.221Z,32.76
2022-09-21T15:59:53.366Z,32.53
2022-09-21T16:02:25.135Z,31.88
2022-09-21T16:04:52.552Z,32.04
2022-09-21T16:07:30.579Z,32.28
2022-09-21T16:09:57.143Z,32.38
2022-09-21T16:12:26.372Z,32.01
2022-09-21T16:14:53.857Z,31.18
2022-09-21T16:17:26.302Z,30.75
2022-09-21T16:19:56.144Z,33.15
2022-09-21T16:22:39.153Z,33.29
2022-09-21T16:25:23.005Z,33.93
2022-09-21T16:27:54.225Z,34.75
2022-09-21T16:30:41.442Z,35.61
2022-09-21T16:33:34.540Z,35.58
2022-09-21T16:36:02.566Z,36.25
2022-09-21T16:38:28.856Z,36.91
2022-09-21T16:40:56.624Z,35.96
2022-09-21T16:43:24.177Z,35.67
2022-09-21T16:45:50.490Z,35.85
2022-09-21T16:48:16.785Z,36.67
2022-09-21T16:50:43.106Z,35.92
2022-09-21T16:53:09.462Z,38.26
2022-09-21T16:55:35.782Z,39.55
2022-09-21T16:58:02.074Z,39.58
2022-09-21T17:00:40.018Z,41.36
2022-09-21T17:03:06.447Z,41.24
2022-09-21T17:05:32.772Z,41.69
2022-09-21T17:07:59.639Z,42.60
2022-09-21T17:10:34.501Z,42.79
2022-09-21T17:13:00.804Z,43.71
2022-09-21T17:15:28.414Z,44.47
2022-09-21T17:17:54.733Z,44.11
2022-09-21T17:20:35.602Z,45.55
2022-09-21T17:23:03.131Z,46.26
2022-09-21T17:25:33.184Z,46.06
2022-09-21T17:28:00.985Z,45.58
2022-09-21T17:30:28.134Z,45.22
2022-09-21T17:32:55.364Z,45.32
2022-09-21T17:35:32.743Z,45.56
2022-09-21T17:37:59.853Z,45.36
2022-09-21T17:40:27.184Z,46.68
2022-09-21T17:43:05.007Z,46.99
2022-09-21T17:45:46.738Z,46.44
2022-09-21T17:48:18.912Z,46.42
2022-09-21T17:50:45.475Z,46.30
2022-09-21T17:53:30.817Z,46.97
2022-09-21T17:55:59.210Z,47.35
2022-09-21T17:58:43.167Z,48.59
2022-09-21T18:01:29.875Z,48.61
2022-09-21T18:03:57.469Z,48.36
2022-09-21T18:06:24.336Z,48.14
2022-09-21T18:08:50.910Z,48.89
2022-09-21T18:11:39.121Z,49.66
2022-09-21T18:14:14.957Z,49.81
2022-09-21T18:17:16.573Z,49.22
2022-09-21T18:19:51.584Z,49.30
2022-09-21T18:22:31.442Z,49.02
2022-09-21T18:24:58.213Z,49.58
2022-09-21T18:27:24.841Z,50.33
2022-09-21T18:29:51.543Z,50.27
2022-09-21T18:32:53.338Z,50.33
2022-09-21T18:35:45.320Z,50.87
2022-09-21T18:38:27.048Z,50.85
2022-09-21T18:41:20.249Z,51.88
2022-09-21T18:44:14.535Z,51.44
2022-09-21T18:47:03.507Z,50.47
2022-09-21T18:49:47.754Z,51.19
2022-09-21T18:52:35.770Z,50.62
2022-09-21T18:55:11.406Z,50.08
2022-09-21T18:57:37.994Z,50.92
2022-09-21T19:00:05.418Z,51.88
2022-09-21T19:02:32.003Z,51.99
2022-09-21T19:04:59.052Z,51.77
2022-09-21T19:07:39.603Z,51.81
2022-09-21T19:10:28.061Z,51.87
2022-09-21T19:12:54.759Z,51.64
2022-09-21T19:15:59.847Z,51.68
2022-09-21T19:18:48.983Z,52.17
2022-09-21T19:21:31.464Z,54.06
2022-09-21T19:24:25.518Z,54.08
2022-09-21T19:26:55.820Z,53.88
2022-09-21T19:29:28.223Z,53.87
2022-09-21T19:31:54.960Z,53.92
2022-09-21T19:34:21.398Z,53.79
2022-09-21T19:36:47.792Z,53.67
2022-09-21T19:39:15.008Z,54.28
2022-09-21T19:41:50.774Z,54.01
2022-09-21T19:44:29.645Z,53.46
2022-09-21T19:46:59.246Z,53.78
2022-09-21T19:49:35.847Z,54.67
2022-09-21T19:52:04.518Z,54.36
2022-09-21T19:54:49.664Z,54.38
2022-09-21T19:57:36.342Z,53.95
2022-09-21T20:00:08.575Z,54.76
2022-09-21T20:02:41.499Z,54.28
2022-09-21T20:05:23.119Z,54.28
2022-09-21T20:07:58.106Z,53.77
2022-09-21T20:10:45.981Z,55.16
2022-09-21T20:14:00.113Z,54.83
2022-09-21T20:16:32.426Z,55.10
2022-09-21T20:19:14.413Z,54.24
2022-09-21T20:21:43.575Z,54.31
2022-09-21T20:24:19.732Z,54.67
2022-09-21T20:26:49.998Z,54.81
2022-09-21T20:29:17.165Z,54.41
2022-09-21T20:31:44.063Z,55.13
2022-09-21T20:34:12.095Z,55.55
2022-09-21T20:36:38.402Z,55.70
2022-09-21T20:39:04.883Z,56.20
2022-09-21T20:41:31.308Z,56.19
2022-09-21T20:43:59.141Z,56.68
2022-09-21T20:46:26.001Z,56.05
2022-09-21T20:49:05.197Z,55.12
2022-09-21T20:51:33.934Z,56.16
2022-09-21T20:54:04.638Z,56.15
2022-09-21T20:56:31.313Z,56.44
2022-09-21T20:58:57.769Z,56.17
2022-09-21T21:01:24.765Z,56.06
2022-09-21T21:03:51.366Z,56.19
2022-09-21T21:06:18.625Z,57.00
2022-09-21T21:08:45.377Z,56.30
2022-09-21T21:11:11.968Z,56.79
2022-09-21T21:13:38.290Z,56.94
2022-09-21T21:16:08.241Z,57.04
2022-09-21T21:18:41.605Z,57.28
2022-09-21T21:21:08.068Z,56.70
2022-09-21T21:23:54.364Z,57.15
2022-09-21T21:26:20.866Z,57.04
2022-09-21T21:28:47.413Z,57.13
2022-09-21T21:31:19.411Z,57.22
2022-09-21T21:33:47.778Z,57.16
2022-09-21T21:36:14.934Z,57.54
2022-09-21T21:38:43.058Z,56.92
2022-09-21T21:41:12.598Z,56.89
2022-09-21T21:43:40.216Z,57.03
2022-09-21T21:46:10.654Z,57.43
2022-09-21T21:48:38.596Z,57.66
2022-09-21T21:51:06.667Z,58.22
2022-09-21T21:53:35.873Z,58.19
2022-09-21T21:56:05.373Z,58.19
2022-09-21T21:58:33.065Z,58.30
2022-09-21T22:01:14.929Z,57.09
2022-09-21T22:03:42.037Z,58.11
2022-09-21T22:06:10.005Z,58.48
2022-09-21T22:08:38.156Z,57.99
2022-09-21T22:11:05.766Z,58.34
2022-09-21T22:13:38.254Z,57.55
2022-09-21T22:16:16.162Z,57.54
2022-09-21T22:18:43.929Z,57.38
2022-09-21T22:21:16.697Z,57.63
2022-09-21T22:23:43.863Z,57.10
2022-09-21T22:26:15.709Z,57.48
2022-09-21T22:28:53.349Z,57.67
2022-09-21T22:31:23.099Z,58.46
2022-09-21T22:33:49.476Z,57.82
2022-09-21T22:36:21.567Z,57.46
2022-09-21T22:38:49.331Z,58.02
2022-09-21T22:41:18.165Z,58.29
2022-09-21T22:43:48.549Z,57.79
2022-09-21T22:46:17.492Z,58.24
2022-09-21T22:48:44.620Z,58.00
2022-09-21T22:51:12.254Z,58.49
2022-09-21T22:53:38.896Z,58.90
2022-09-21T22:56:06.908Z,58.72
2022-09-21T22:58:35.019Z,58.53
2022-09-21T23:01:15.647Z,58.46
2022-09-21T23:03:42.601Z,58.19
2022-09-21T23:06:11.500Z,58.60
2022-09-21T23:08:38.883Z,58.52
2022-09-21T23:11:22.176Z,58.54
2022-09-21T23:13:49.294Z,58.27
2022-09-21T23:16:16.656Z,58.08
2022-09-21T23:18:43.888Z,58.45
2022-09-21T23:21:13.243Z,58.54
2022-09-21T23:23:40.174Z,59.60
2022-09-21T23:26:16.717Z,59.48
2022-09-21T23:28:45.623Z,59.61
2022-09-21T23:31:14.695Z,59.35
2022-09-21T23:33:46.982Z,58.88
2022-09-21T23:36:16.344Z,58.81
2022-09-21T23:38:43.193Z,59.25
2022-09-21T23:41:13.800Z,59.06
2022-09-21T23:43:41.893Z,59.56
2022-09-21T23:46:10.902Z,59.34
2022-09-21T23:48:38.205Z,60.14
2022-09-21T23:51:05.204Z,59.85
2022-09-21T23:53:31.834Z,59.58
2022-09-21T23:55:58.677Z,59.57
2022-09-21T23:58:26.015Z,59.23
